Terminal Aerodrome Forecast
Issued by NWS Wichita, KS

Home | Current Version | Previous Version | Text Only | Print | Product List | Glossary Off
Versions: 1 2 3 4 5 6 7 8 9 10 11 12 13 14 15 16 17

000
FTUS43 KICT 261729
TAFICT
TAF
KICT 261729Z 2618/2718 02015KT P6SM BKN008 OVC025
     FM270100 33012KT P6SM VCSH BKN015 OVC040
     FM270400 32015G20KT P6SM SCT020 BKN035
     FM270700 32015G20KT P6SM SCT020 BKN150=

USA.gov is the U.S. government's official web portal to all federal, state and local government web resources and services.